sensor_id;sensor_type;location;lat;lon;timestamp;temperature;humidity
10278;DHT22;5184;51.376;7.148;2023-04-04T00:00:18;-0.20;1.00
10278;DHT22;5184;51.376;7.148;2023-04-04T00:02:45;-0.20;99.90
10278;DHT22;5184;51.376;7.148;2023-04-04T00:05:11;-0.20;1.00
10278;DHT22;5184;51.376;7.148;2023-04-04T00:07:38;-0.20;1.00
10278;DHT22;5184;51.376;7.148;2023-04-04T00:10:05;-0.30;99.90
10278;DHT22;5184;51.376;7.148;2023-04-04T00:12:32;-0.30;1.00
10278;DHT22;5184;51.376;7.148;2023-04-04T00:14:58;-0.40;1.00
10278;DHT22;5184;51.376;7.148;2023-04-04T00:17:26;-0.40;1.00
10278;DHT22;5184;51.376;7.148;2023-04-04T00:19:53;-0.40;1.00
10278;DHT22;5184;51.376;7.148;2023-04-04T00:22:21;-0.40;1.00
10278;DHT22;5184;51.376;7.148;2023-04-04T00:24:48;-0.50;1.00
10278;DHT22;5184;51.376;7.148;2023-04-04T00:27:15;-0.50;1.00
10278;DHT22;5184;51.376;7.148;2023-04-04T00:29:42;-0.50;1.00
10278;DHT22;5184;51.376;7.148;2023-04-04T00:32:08;-0.50;1.00
10278;DHT22;5184;51.376;7.148;2023-04-04T00:34:35;-0.50;1.00
10278;DHT22;5184;51.376;7.148;2023-04-04T00:37:02;-0.60;1.00
10278;DHT22;5184;51.376;7.148;2023-04-04T00:39:28;-0.60;1.00
10278;DHT22;5184;51.376;7.148;2023-04-04T00:41:56;-0.70;19.80
10278;DHT22;5184;51.376;7.148;2023-04-04T00:44:23;-0.70;11.10
10278;DHT22;5184;51.376;7.148;2023-04-04T00:46:51;-0.70;5.30
10278;DHT22;5184;51.376;7.148;2023-04-04T00:49:17;-0.70;1.00
10278;DHT22;5184;51.376;7.148;2023-04-04T00:51:44;-0.80;1.00
10278;DHT22;5184;51.376;7.148;2023-04-04T00:54:11;-0.80;1.00
10278;DHT22;5184;51.376;7.148;2023-04-04T00:56:38;-0.80;1.00
10278;DHT22;5184;51.376;7.148;2023-04-04T00:59:04;-0.80;1.00
10278;DHT22;5184;51.376;7.148;2023-04-04T01:01:31;-0.80;1.00
10278;DHT22;5184;51.376;7.148;2023-04-04T01:03:57;-0.90;1.00
10278;DHT22;5184;51.376;7.148;2023-04-04T01:06:25;-0.90;1.00
10278;DHT22;5184;51.376;7.148;2023-04-04T01:08:52;-0.90;1.00
10278;DHT22;5184;51.376;7.148;2023-04-04T01:11:19;-0.90;1.00
10278;DHT22;5184;51.376;7.148;2023-04-04T01:13:46;-0.90;1.00
10278;DHT22;5184;51.376;7.148;2023-04-04T01:16:12;-1.00;1.00
10278;DHT22;5184;51.376;7.148;2023-04-04T01:18:39;-1.00;1.00
10278;DHT22;5184;51.376;7.148;2023-04-04T01:21:06;-1.00;1.00
10278;DHT22;5184;51.376;7.148;2023-04-04T01:23:46;-1.00;1.00
10278;DHT22;5184;51.376;7.148;2023-04-04T01:26:10;-1.10;88.70
10278;DHT22;5184;51.376;7.148;2023-04-04T01:28:36;-1.10;81.30
10278;DHT22;5184;51.376;7.148;2023-04-04T01:31:03;-1.10;1.00
10278;DHT22;5184;51.376;7.148;2023-04-04T01:33:31;-1.10;21.40
10278;DHT22;5184;51.376;7.148;2023-04-04T01:36:09;-1.10;79.40
10278;DHT22;5184;51.376;7.148;2023-04-04T01:38:39;-1.20;97.70
10278;DHT22;5184;51.376;7.148;2023-04-04T01:41:06;-1.20;36.80
10278;DHT22;5184;51.376;7.148;2023-04-04T01:43:31;-1.20;29.30
10278;DHT22;5184;51.376;7.148;2023-04-04T01:45:58;-1.20;1.00
10278;DHT22;5184;51.376;7.148;2023-04-04T01:48:24;-1.30;98.10
10278;DHT22;5184;51.376;7.148;2023-04-04T01:50:52;-1.30;99.90
10278;DHT22;5184;51.376;7.148;2023-04-04T01:53:19;-1.30;99.90
10278;DHT22;5184;51.376;7.148;2023-04-04T01:55:45;-1.30;99.90
10278;DHT22;5184;51.376;7.148;2023-04-04T01:58:12;-1.30;99.90
10278;DHT22;5184;51.376;7.148;2023-04-04T02:00:38;-1.30;99.90
10278;DHT22;5184;51.376;7.148;2023-04-04T02:03:06;-1.40;99.90
10278;DHT22;5184;51.376;7.148;2023-04-04T02:05:33;-1.40;99.90
10278;DHT22;5184;51.376;7.148;2023-04-04T02:08:00;-1.40;99.90
10278;DHT22;5184;51.376;7.148;2023-04-04T02:10:26;-1.40;99.90
10278;DHT22;5184;51.376;7.148;2023-04-04T02:12:53;-1.50;99.90
10278;DHT22;5184;51.376;7.148;2023-04-04T02:15:20;-1.50;99.90
10278;DHT22;5184;51.376;7.148;2023-04-04T02:17:48;-1.50;99.90
10278;DHT22;5184;51.376;7.148;2023-04-04T02:20:14;-1.50;99.90
10278;DHT22;5184;51.376;7.148;2023-04-04T02:22:41;-1.50;99.90
10278;DHT22;5184;51.376;7.148;2023-04-04T02:25:08;-1.60;99.90
10278;DHT22;5184;51.376;7.148;2023-04-04T02:27:34;-1.60;99.90
10278;DHT22;5184;51.376;7.148;2023-04-04T02:30:02;-1.60;99.90
10278;DHT22;5184;51.376;7.148;2023-04-04T02:32:28;-1.60;99.90
10278;DHT22;5184;51.376;7.148;2023-04-04T02:34:56;-1.60;99.90
10278;DHT22;5184;51.376;7.148;2023-04-04T02:37:22;-1.60;99.90
10278;DHT22;5184;51.376;7.148;2023-04-04T02:39:49;-1.60;99.90
10278;DHT22;5184;51.376;7.148;2023-04-04T02:42:16;-1.60;99.90
10278;DHT22;5184;51.376;7.148;2023-04-04T02:44:43;-1.70;99.90
10278;DHT22;5184;51.376;7.148;2023-04-04T02:47:10;-1.70;99.90
10278;DHT22;5184;51.376;7.148;2023-04-04T02:49:37;-1.70;99.90
10278;DHT22;5184;51.376;7.148;2023-04-04T02:52:03;-1.70;1.00
10278;DHT22;5184;51.376;7.148;2023-04-04T02:54:30;-1.80;99.90
10278;DHT22;5184;51.376;7.148;2023-04-04T02:56:57;-1.80;1.00
10278;DHT22;5184;51.376;7.148;2023-04-04T02:59:25;-1.90;1.00
10278;DHT22;5184;51.376;7.148;2023-04-04T03:01:52;-1.90;1.00
10278;DHT22;5184;51.376;7.148;2023-04-04T03:04:19;-1.90;1.00
10278;DHT22;5184;51.376;7.148;2023-04-04T03:06:46;-1.90;1.00
10278;DHT22;5184;51.376;7.148;2023-04-04T03:09:13;-1.90;1.00
10278;DHT22;5184;51.376;7.148;2023-04-04T03:11:39;-1.90;1.00
10278;DHT22;5184;51.376;7.148;2023-04-04T03:14:06;-1.90;1.00
10278;DHT22;5184;51.376;7.148;2023-04-04T03:16:32;-2.00;1.00
10278;DHT22;5184;51.376;7.148;2023-04-04T03:19:00;-2.00;1.00
10278;DHT22;5184;51.376;7.148;2023-04-04T03:21:27;-1.90;17.80
10278;DHT22;5184;51.376;7.148;2023-04-04T03:23:54;-2.00;11.40
10278;DHT22;5184;51.376;7.148;2023-04-04T03:26:20;-2.00;1.00
10278;DHT22;5184;51.376;7.148;2023-04-04T03:28:47;-2.00;1.00
10278;DHT22;5184;51.376;7.148;2023-04-04T03:31:14;-2.00;40.10
10278;DHT22;5184;51.376;7.148;2023-04-04T03:33:40;-2.00;65.20
10278;DHT22;5184;51.376;7.148;2023-04-04T03:36:09;-2.10;99.90
10278;DHT22;5184;51.376;7.148;2023-04-04T03:38:35;-2.10;99.90
10278;DHT22;5184;51.376;7.148;2023-04-04T03:41:03;-2.10;99.90
10278;DHT22;5184;51.376;7.148;2023-04-04T03:43:30;-2.20;99.90
10278;DHT22;5184;51.376;7.148;2023-04-04T03:45:59;-2.20;99.90
10278;DHT22;5184;51.376;7.148;2023-04-04T03:48:26;-2.20;99.90
10278;DHT22;5184;51.376;7.148;2023-04-04T03:50:55;-2.30;99.90
10278;DHT22;5184;51.376;7.148;2023-04-04T03:53:20;-2.30;99.90
10278;DHT22;5184;51.376;7.148;2023-04-04T03:55:47;-2.30;99.90
10278;DHT22;5184;51.376;7.148;2023-04-04T03:58:13;-2.30;99.90
10278;DHT22;5184;51.376;7.148;2023-04-04T04:00:41;-2.40;99.90
10278;DHT22;5184;51.376;7.148;2023-04-04T04:03:08;-2.40;99.90
10278;DHT22;5184;51.376;7.148;2023-04-04T04:05:35;-2.40;99.90
10278;DHT22;5184;51.376;7.148;2023-04-04T04:08:01;-2.40;99.90
10278;DHT22;5184;51.376;7.148;2023-04-04T04:10:28;-2.40;99.90
10278;DHT22;5184;51.376;7.148;2023-04-04T04:12:55;-2.50;99.90
10278;DHT22;5184;51.376;7.148;2023-04-04T04:15:23;-2.50;1.00
10278;DHT22;5184;51.376;7.148;2023-04-04T04:17:49;-2.50;1.00
10278;DHT22;5184;51.376;7.148;2023-04-04T04:20:16;-2.50;1.00
10278;DHT22;5184;51.376;7.148;2023-04-04T04:22:45;-2.50;99.90
10278;DHT22;5184;51.376;7.148;2023-04-04T04:25:11;-2.50;1.00
10278;DHT22;5184;51.376;7.148;2023-04-04T04:27:37;-2.60;1.00
10278;DHT22;5184;51.376;7.148;2023-04-04T04:30:05;-2.60;1.00
10278;DHT22;5184;51.376;7.148;2023-04-04T04:32:32;-2.60;1.00
10278;DHT22;5184;51.376;7.148;2023-04-04T04:34:59;-2.60;1.00
10278;DHT22;5184;51.376;7.148;2023-04-04T04:37:25;-2.60;1.00
10278;DHT22;5184;51.376;7.148;2023-04-04T04:39:52;-2.60;1.00
10278;DHT22;5184;51.376;7.148;2023-04-04T04:42:19;-2.60;1.00
10278;DHT22;5184;51.376;7.148;2023-04-04T04:44:47;-2.60;1.00
10278;DHT22;5184;51.376;7.148;2023-04-04T04:47:14;-2.60;59.10
10278;DHT22;5184;51.376;7.148;2023-04-04T04:49:41;-2.60;96.30
10278;DHT22;5184;51.376;7.148;2023-04-04T04:52:08;-2.60;89.90
10278;DHT22;5184;51.376;7.148;2023-04-04T04:54:35;-2.70;99.90
10278;DHT22;5184;51.376;7.148;2023-04-04T04:57:01;-2.60;99.90
10278;DHT22;5184;51.376;7.148;2023-04-04T04:59:29;-2.70;99.90
10278;DHT22;5184;51.376;7.148;2023-04-04T05:01:56;-2.70;99.90
10278;DHT22;5184;51.376;7.148;2023-04-04T05:04:23;-2.70;99.90
10278;DHT22;5184;51.376;7.148;2023-04-04T05:06:50;-2.70;99.90
10278;DHT22;5184;51.376;7.148;2023-04-04T05:09:16;-2.70;99.90
10278;DHT22;5184;51.376;7.148;2023-04-04T05:11:43;-2.70;99.90
10278;DHT22;5184;51.376;7.148;2023-04-04T05:14:10;-2.70;99.90
10278;DHT22;5184;51.376;7.148;2023-04-04T05:16:37;-2.70;99.90
10278;DHT22;5184;51.376;7.148;2023-04-04T05:19:04;-2.70;99.90
10278;DHT22;5184;51.376;7.148;2023-04-04T05:21:30;-2.70;99.90
10278;DHT22;5184;51.376;7.148;2023-04-04T05:23:58;-2.70;1.00
10278;DHT22;5184;51.376;7.148;2023-04-04T05:26:24;-2.70;1.00
10278;DHT22;5184;51.376;7.148;2023-04-04T05:28:51;-2.70;1.00
10278;DHT22;5184;51.376;7.148;2023-04-04T05:31:17;-2.70;48.80
10278;DHT22;5184;51.376;7.148;2023-04-04T05:33:44;-2.70;1.00
10278;DHT22;5184;51.376;7.148;2023-04-04T05:36:11;-2.80;1.00
10278;DHT22;5184;51.376;7.148;2023-04-04T05:38:37;-2.70;99.90
10278;DHT22;5184;51.376;7.148;2023-04-04T05:41:05;-2.70;99.90
10278;DHT22;5184;51.376;7.148;2023-04-04T05:43:31;-2.70;99.90
10278;DHT22;5184;51.376;7.148;2023-04-04T05:45:58;-2.60;99.90
10278;DHT22;5184;51.376;7.148;2023-04-04T05:48:24;-2.60;99.90
10278;DHT22;5184;51.376;7.148;2023-04-04T05:50:51;-2.60;99.90
10278;DHT22;5184;51.376;7.148;2023-04-04T05:53:18;-2.60;99.90
10278;DHT22;5184;51.376;7.148;2023-04-04T05:55:45;-2.60;99.90
10278;DHT22;5184;51.376;7.148;2023-04-04T05:58:12;-2.60;99.90
10278;DHT22;5184;51.376;7.148;2023-04-04T06:00:39;-2.50;99.90
10278;DHT22;5184;51.376;7.148;2023-04-04T06:03:06;-2.50;99.90
10278;DHT22;5184;51.376;7.148;2023-04-04T06:05:34;-2.40;99.90
10278;DHT22;5184;51.376;7.148;2023-04-04T06:08:00;-2.40;99.90
10278;DHT22;5184;51.376;7.148;2023-04-04T06:10:27;-2.40;99.90
10278;DHT22;5184;51.376;7.148;2023-04-04T06:12:53;-2.30;1.00
10278;DHT22;5184;51.376;7.148;2023-04-04T06:15:21;-2.40;99.90
10278;DHT22;5184;51.376;7.148;2023-04-04T06:17:48;-2.40;1.00
10278;DHT22;5184;51.376;7.148;2023-04-04T06:20:16;-2.30;1.00
10278;DHT22;5184;51.376;7.148;2023-04-04T06:22:42;-2.30;1.00
10278;DHT22;5184;51.376;7.148;2023-04-04T06:25:10;-2.10;1.00
10278;DHT22;5184;51.376;7.148;2023-04-04T06:27:37;-2.10;16.50
10278;DHT22;5184;51.376;7.148;2023-04-04T06:30:04;-2.10;8.60
10278;DHT22;5184;51.376;7.148;2023-04-04T06:32:31;-2.00;1.00
10278;DHT22;5184;51.376;7.148;2023-04-04T06:34:58;-2.00;1.00
10278;DHT22;5184;51.376;7.148;2023-04-04T06:37:25;-2.00;1.00
10278;DHT22;5184;51.376;7.148;2023-04-04T06:39:51;-1.90;35.20
10278;DHT22;5184;51.376;7.148;2023-04-04T06:42:18;-1.80;1.00
10278;DHT22;5184;51.376;7.148;2023-04-04T06:44:45;-1.70;1.00
10278;DHT22;5184;51.376;7.148;2023-04-04T06:47:13;-1.70;1.00
10278;DHT22;5184;51.376;7.148;2023-04-04T06:49:40;-1.60;1.00
10278;DHT22;5184;51.376;7.148;2023-04-04T06:52:07;-1.60;1.00
10278;DHT22;5184;51.376;7.148;2023-04-04T06:54:33;-1.50;1.00
10278;DHT22;5184;51.376;7.148;2023-04-04T06:57:00;-1.50;1.00
10278;DHT22;5184;51.376;7.148;2023-04-04T06:59:26;-1.40;95.60
10278;DHT22;5184;51.376;7.148;2023-04-04T07:01:53;-1.30;99.90
10278;DHT22;5184;51.376;7.148;2023-04-04T07:04:19;-1.10;99.90
10278;DHT22;5184;51.376;7.148;2023-04-04T07:06:46;-1.10;99.90
10278;DHT22;5184;51.376;7.148;2023-04-04T07:09:14;-1.00;26.80
10278;DHT22;5184;51.376;7.148;2023-04-04T07:11:40;-0.90;1.00
10278;DHT22;5184;51.376;7.148;2023-04-04T07:14:07;-0.80;1.00
10278;DHT22;5184;51.376;7.148;2023-04-04T07:16:34;-0.60;99.90
10278;DHT22;5184;51.376;7.148;2023-04-04T07:19:01;-0.60;99.90
10278;DHT22;5184;51.376;7.148;2023-04-04T07:21:27;-0.50;1.00
10278;DHT22;5184;51.376;7.148;2023-04-04T07:23:54;-0.50;1.00
10278;DHT22;5184;51.376;7.148;2023-04-04T07:26:21;-0.30;99.90
10278;DHT22;5184;51.376;7.148;2023-04-04T07:28:49;-0.10;99.90
10278;DHT22;5184;51.376;7.148;2023-04-04T07:31:15;-0.10;99.90
10278;DHT22;5184;51.376;7.148;2023-04-04T07:33:42;0.00;1.00
10278;DHT22;5184;51.376;7.148;2023-04-04T07:36:08;0.10;1.00
10278;DHT22;5184;51.376;7.148;2023-04-04T07:38:35;0.30;1.00
10278;DHT22;5184;51.376;7.148;2023-04-04T07:41:02;0.40;99.90
10278;DHT22;5184;51.376;7.148;2023-04-04T07:43:29;1.40;99.90
10278;DHT22;5184;51.376;7.148;2023-04-04T07:45:56;1.50;1.00
10278;DHT22;5184;51.376;7.148;2023-04-04T07:48:24;1.50;99.90
10278;DHT22;5184;51.376;7.148;2023-04-04T07:50:51;1.60;1.00
10278;DHT22;5184;51.376;7.148;2023-04-04T07:53:18;1.60;1.00
10278;DHT22;5184;51.376;7.148;2023-04-04T07:55:46;1.70;63.90
10278;DHT22;5184;51.376;7.148;2023-04-04T07:58:13;1.80;1.00
10278;DHT22;5184;51.376;7.148;2023-04-04T08:00:40;1.90;1.00
10278;DHT22;5184;51.376;7.148;2023-04-04T08:03:08;2.00;99.90
10278;DHT22;5184;51.376;7.148;2023-04-04T08:05:35;2.20;99.90
10278;DHT22;5184;51.376;7.148;2023-04-04T08:08:03;2.30;1.00
10278;DHT22;5184;51.376;7.148;2023-04-04T08:10:30;2.50;1.00
10278;DHT22;5184;51.376;7.148;2023-04-04T08:12:57;2.60;99.90
10278;DHT22;5184;51.376;7.148;2023-04-04T08:15:24;2.60;99.90
10278;DHT22;5184;51.376;7.148;2023-04-04T08:17:50;2.80;99.90
10278;DHT22;5184;51.376;7.148;2023-04-04T08:20:17;2.80;99.90
10278;DHT22;5184;51.376;7.148;2023-04-04T08:22:44;3.00;92.50
10278;DHT22;5184;51.376;7.148;2023-04-04T08:25:10;3.00;22.00
10278;DHT22;5184;51.376;7.148;2023-04-04T08:27:39;3.10;1.00
10278;DHT22;5184;51.376;7.148;2023-04-04T08:30:06;3.10;2.60
10278;DHT22;5184;51.376;7.148;2023-04-04T08:32:32;3.20;1.00
10278;DHT22;5184;51.376;7.148;2023-04-04T08:34:59;3.20;1.00
10278;DHT22;5184;51.376;7.148;2023-04-04T08:37:26;3.30;1.00
10278;DHT22;5184;51.376;7.148;2023-04-04T08:39:52;3.50;99.90
10278;DHT22;5184;51.376;7.148;2023-04-04T08:42:19;3.60;99.90
10278;DHT22;5184;51.376;7.148;2023-04-04T08:44:46;3.70;99.90
10278;DHT22;5184;51.376;7.148;2023-04-04T08:47:12;3.80;99.90
10278;DHT22;5184;51.376;7.148;2023-04-04T08:49:40;4.00;99.90
10278;DHT22;5184;51.376;7.148;2023-04-04T08:52:07;4.00;99.90
10278;DHT22;5184;51.376;7.148;2023-04-04T08:54:34;4.00;99.90
10278;DHT22;5184;51.376;7.148;2023-04-04T08:57:01;4.00;99.90
10278;DHT22;5184;51.376;7.148;2023-04-04T08:59:29;4.00;99.90
10278;DHT22;5184;51.376;7.148;2023-04-04T09:04:47;4.00;99.90
10278;DHT22;5184;51.376;7.148;2023-04-04T09:07:14;4.20;99.90
10278;DHT22;5184;51.376;7.148;2023-04-04T09:09:43;4.20;99.90
10278;DHT22;5184;51.376;7.148;2023-04-04T09:12:07;4.30;99.90
10278;DHT22;5184;51.376;7.148;2023-04-04T09:14:34;4.40;99.90
10278;DHT22;5184;51.376;7.148;2023-04-04T09:17:00;4.40;99.90
10278;DHT22;5184;51.376;7.148;2023-04-04T09:19:27;4.50;99.90
10278;DHT22;5184;51.376;7.148;2023-04-04T09:21:54;4.40;99.90
10278;DHT22;5184;51.376;7.148;2023-04-04T09:24:22;4.50;99.90
10278;DHT22;5184;51.376;7.148;2023-04-04T09:26:51;4.60;99.90
10278;DHT22;5184;51.376;7.148;2023-04-04T09:29:19;4.70;99.90
10278;DHT22;5184;51.376;7.148;2023-04-04T09:31:46;4.70;91.10
10278;DHT22;5184;51.376;7.148;2023-04-04T09:34:14;4.70;42.90
10278;DHT22;5184;51.376;7.148;2023-04-04T09:36:40;4.70;1.80
10278;DHT22;5184;51.376;7.148;2023-04-04T09:39:08;4.70;3.70
10278;DHT22;5184;51.376;7.148;2023-04-04T09:41:37;4.80;1.00
10278;DHT22;5184;51.376;7.148;2023-04-04T09:44:02;4.70;1.00
10278;DHT22;5184;51.376;7.148;2023-04-04T09:46:29;4.90;1.00
10278;DHT22;5184;51.376;7.148;2023-04-04T09:48:56;4.90;1.00
10278;DHT22;5184;51.376;7.148;2023-04-04T09:51:22;5.00;1.00
10278;DHT22;5184;51.376;7.148;2023-04-04T09:53:49;5.00;1.00
10278;DHT22;5184;51.376;7.148;2023-04-04T09:56:16;5.00;1.00
10278;DHT22;5184;51.376;7.148;2023-04-04T09:58:49;5.10;1.00
10278;DHT22;5184;51.376;7.148;2023-04-04T10:01:16;5.10;1.00
10278;DHT22;5184;51.376;7.148;2023-04-04T10:03:43;5.10;1.00
10278;DHT22;5184;51.376;7.148;2023-04-04T10:06:09;5.10;1.00
10278;DHT22;5184;51.376;7.148;2023-04-04T10:08:38;5.20;1.00
10278;DHT22;5184;51.376;7.148;2023-04-04T10:11:03;5.10;1.00
10278;DHT22;5184;51.376;7.148;2023-04-04T10:13:30;5.20;1.00
10278;DHT22;5184;51.376;7.148;2023-04-04T10:15:59;5.20;1.00
10278;DHT22;5184;51.376;7.148;2023-04-04T10:18:26;5.30;1.00
10278;DHT22;5184;51.376;7.148;2023-04-04T10:20:54;5.50;1.00
10278;DHT22;5184;51.376;7.148;2023-04-04T10:23:21;5.50;1.00
10278;DHT22;5184;51.376;7.148;2023-04-04T10:25:48;5.50;1.00
10278;DHT22;5184;51.376;7.148;2023-04-04T10:28:15;5.60;1.00
10278;DHT22;5184;51.376;7.148;2023-04-04T10:30:42;5.70;1.00
10278;DHT22;5184;51.376;7.148;2023-04-04T10:33:13;6.00;1.00
10278;DHT22;5184;51.376;7.148;2023-04-04T10:35:37;6.40;1.00
10278;DHT22;5184;51.376;7.148;2023-04-04T10:38:03;6.80;1.00
10278;DHT22;5184;51.376;7.148;2023-04-04T10:40:30;6.70;1.00
10278;DHT22;5184;51.376;7.148;2023-04-04T10:43:00;6.40;1.00
10278;DHT22;5184;51.376;7.148;2023-04-04T10:45:26;6.30;1.00
10278;DHT22;5184;51.376;7.148;2023-04-04T10:47:52;6.30;1.00
10278;DHT22;5184;51.376;7.148;2023-04-04T10:50:20;6.20;1.00
10278;DHT22;5184;51.376;7.148;2023-04-04T10:52:47;6.20;1.00
10278;DHT22;5184;51.376;7.148;2023-04-04T10:55:14;6.20;1.00
10278;DHT22;5184;51.376;7.148;2023-04-04T10:57:44;6.20;1.00
10278;DHT22;5184;51.376;7.148;2023-04-04T11:00:12;6.20;1.00
10278;DHT22;5184;51.376;7.148;2023-04-04T11:02:46;6.20;1.00
10278;DHT22;5184;51.376;7.148;2023-04-04T11:05:30;6.20;1.00
10278;DHT22;5184;51.376;7.148;2023-04-04T11:07:58;6.20;1.00
10278;DHT22;5184;51.376;7.148;2023-04-04T11:10:26;6.30;1.00
10278;DHT22;5184;51.376;7.148;2023-04-04T11:12:51;6.40;1.00
10278;DHT22;5184;51.376;7.148;2023-04-04T11:15:18;6.50;1.00
10278;DHT22;5184;51.376;7.148;2023-04-04T11:17:54;6.60;1.00
10278;DHT22;5184;51.376;7.148;2023-04-04T11:20:20;6.60;1.00
10278;DHT22;5184;51.376;7.148;2023-04-04T11:22:50;6.60;1.00
10278;DHT22;5184;51.376;7.148;2023-04-04T11:25:39;6.60;1.00
10278;DHT22;5184;51.376;7.148;2023-04-04T11:28:12;6.60;1.00
10278;DHT22;5184;51.376;7.148;2023-04-04T11:30:40;6.70;1.00
10278;DHT22;5184;51.376;7.148;2023-04-04T11:33:06;6.80;1.00
10278;DHT22;5184;51.376;7.148;2023-04-04T11:35:36;6.80;1.00
10278;DHT22;5184;51.376;7.148;2023-04-04T11:38:01;6.90;1.00
10278;DHT22;5184;51.376;7.148;2023-04-04T11:40:34;6.90;1.00
10278;DHT22;5184;51.376;7.148;2023-04-04T11:43:00;6.90;1.00
10278;DHT22;5184;51.376;7.148;2023-04-04T11:45:27;6.90;1.00
10278;DHT22;5184;51.376;7.148;2023-04-04T11:47:54;6.90;99.90
10278;DHT22;5184;51.376;7.148;2023-04-04T11:50:21;6.90;99.90
10278;DHT22;5184;51.376;7.148;2023-04-04T11:52:48;6.90;99.90
10278;DHT22;5184;51.376;7.148;2023-04-04T11:55:15;7.00;1.00
10278;DHT22;5184;51.376;7.148;2023-04-04T11:57:41;7.20;1.00
10278;DHT22;5184;51.376;7.148;2023-04-04T12:00:10;7.40;1.00
10278;DHT22;5184;51.376;7.148;2023-04-04T12:02:36;7.40;1.00
10278;DHT22;5184;51.376;7.148;2023-04-04T12:05:03;7.40;99.90
10278;DHT22;5184;51.376;7.148;2023-04-04T12:07:30;7.40;99.90
10278;DHT22;5184;51.376;7.148;2023-04-04T12:09:57;7.40;99.90
10278;DHT22;5184;51.376;7.148;2023-04-04T12:12:24;7.50;99.90
10278;DHT22;5184;51.376;7.148;2023-04-04T12:14:52;7.50;99.90
10278;DHT22;5184;51.376;7.148;2023-04-04T12:17:17;7.60;99.90
10278;DHT22;5184;51.376;7.148;2023-04-04T12:19:44;7.70;99.90
10278;DHT22;5184;51.376;7.148;2023-04-04T12:22:12;7.70;99.90
10278;DHT22;5184;51.376;7.148;2023-04-04T12:24:39;7.90;99.90
10278;DHT22;5184;51.376;7.148;2023-04-04T12:27:07;8.00;99.90
10278;DHT22;5184;51.376;7.148;2023-04-04T12:29:34;8.10;99.90
10278;DHT22;5184;51.376;7.148;2023-04-04T12:32:02;8.10;99.90
10278;DHT22;5184;51.376;7.148;2023-04-04T12:34:29;8.20;99.90
10278;DHT22;5184;51.376;7.148;2023-04-04T12:36:55;8.30;99.90
10278;DHT22;5184;51.376;7.148;2023-04-04T12:39:21;8.40;99.90
10278;DHT22;5184;51.376;7.148;2023-04-04T12:41:51;8.50;99.90
10278;DHT22;5184;51.376;7.148;2023-04-04T12:44:27;8.50;99.90
10278;DHT22;5184;51.376;7.148;2023-04-04T12:46:55;8.60;99.90
10278;DHT22;5184;51.376;7.148;2023-04-04T12:49:19;8.70;99.90
10278;DHT22;5184;51.376;7.148;2023-04-04T12:51:46;8.60;99.90
10278;DHT22;5184;51.376;7.148;2023-04-04T12:54:25;8.60;99.90
10278;DHT22;5184;51.376;7.148;2023-04-04T12:56:55;8.70;99.90
10278;DHT22;5184;51.376;7.148;2023-04-04T12:59:22;8.80;99.90
10278;DHT22;5184;51.376;7.148;2023-04-04T13:01:49;8.80;99.90
10278;DHT22;5184;51.376;7.148;2023-04-04T13:15:01;8.70;99.90
10278;DHT22;5184;51.376;7.148;2023-04-04T13:17:42;8.80;99.90
10278;DHT22;5184;51.376;7.148;2023-04-04T13:20:09;8.80;99.90
10278;DHT22;5184;51.376;7.148;2023-04-04T13:22:36;8.90;99.90
10278;DHT22;5184;51.376;7.148;2023-04-04T13:25:03;8.90;99.90
10278;DHT22;5184;51.376;7.148;2023-04-04T13:27:30;9.10;99.90
10278;DHT22;5184;51.376;7.148;2023-04-04T13:29:57;9.20;99.90
10278;DHT22;5184;51.376;7.148;2023-04-04T13:32:25;9.20;99.90
10278;DHT22;5184;51.376;7.148;2023-04-04T13:34:51;9.10;99.90
10278;DHT22;5184;51.376;7.148;2023-04-04T13:37:18;9.10;99.90
10278;DHT22;5184;51.376;7.148;2023-04-04T13:39:44;9.20;99.90
10278;DHT22;5184;51.376;7.148;2023-04-04T13:42:11;9.30;99.90
10278;DHT22;5184;51.376;7.148;2023-04-04T13:44:38;9.30;99.90
10278;DHT22;5184;51.376;7.148;2023-04-04T13:47:04;9.40;99.90
10278;DHT22;5184;51.376;7.148;2023-04-04T13:49:31;9.50;99.90
10278;DHT22;5184;51.376;7.148;2023-04-04T13:51:58;9.80;99.90
10278;DHT22;5184;51.376;7.148;2023-04-04T13:54:25;9.80;99.90
10278;DHT22;5184;51.376;7.148;2023-04-04T13:56:53;10.00;99.90
10278;DHT22;5184;51.376;7.148;2023-04-04T13:59:20;10.10;99.90
10278;DHT22;5184;51.376;7.148;2023-04-04T14:01:47;10.00;99.90
10278;DHT22;5184;51.376;7.148;2023-04-04T14:04:15;9.90;99.90
10278;DHT22;5184;51.376;7.148;2023-04-04T14:06:42;10.00;99.90
10278;DHT22;5184;51.376;7.148;2023-04-04T14:09:09;10.20;99.90
10278;DHT22;5184;51.376;7.148;2023-04-04T14:11:37;10.40;99.90
10278;DHT22;5184;51.376;7.148;2023-04-04T14:14:03;10.40;99.90
10278;DHT22;5184;51.376;7.148;2023-04-04T14:16:30;10.40;99.90
10278;DHT22;5184;51.376;7.148;2023-04-04T14:18:57;10.40;99.90
10278;DHT22;5184;51.376;7.148;2023-04-04T14:21:23;10.20;99.90
10278;DHT22;5184;51.376;7.148;2023-04-04T14:23:50;10.00;99.90
10278;DHT22;5184;51.376;7.148;2023-04-04T14:26:17;10.40;99.90
10278;DHT22;5184;51.376;7.148;2023-04-04T14:28:45;10.80;99.90
10278;DHT22;5184;51.376;7.148;2023-04-04T14:31:11;10.80;99.90
10278;DHT22;5184;51.376;7.148;2023-04-04T14:33:38;11.00;99.90
10278;DHT22;5184;51.376;7.148;2023-04-04T14:36:04;10.90;99.90
10278;DHT22;5184;51.376;7.148;2023-04-04T14:38:31;10.80;99.90
10278;DHT22;5184;51.376;7.148;2023-04-04T14:40:58;10.90;99.90
10278;DHT22;5184;51.376;7.148;2023-04-04T14:43:24;10.90;99.90
10278;DHT22;5184;51.376;7.148;2023-04-04T14:45:51;10.90;99.90
10278;DHT22;5184;51.376;7.148;2023-04-04T14:48:17;11.00;99.90
10278;DHT22;5184;51.376;7.148;2023-04-04T14:50:45;11.50;99.90
10278;DHT22;5184;51.376;7.148;2023-04-04T14:53:12;11.50;99.90
10278;DHT22;5184;51.376;7.148;2023-04-04T14:55:39;11.50;99.90
10278;DHT22;5184;51.376;7.148;2023-04-04T14:58:05;11.70;99.90
10278;DHT22;5184;51.376;7.148;2023-04-04T15:00:32;12.20;99.90
10278;DHT22;5184;51.376;7.148;2023-04-04T15:02:58;12.80;99.90
10278;DHT22;5184;51.376;7.148;2023-04-04T15:05:25;13.10;99.90
10278;DHT22;5184;51.376;7.148;2023-04-04T15:07:52;13.60;99.90
10278;DHT22;5184;51.376;7.148;2023-04-04T15:10:20;13.40;99.90
10278;DHT22;5184;51.376;7.148;2023-04-04T15:12:47;13.40;99.90
10278;DHT22;5184;51.376;7.148;2023-04-04T15:15:14;13.40;99.90
10278;DHT22;5184;51.376;7.148;2023-04-04T15:17:40;13.20;99.90
10278;DHT22;5184;51.376;7.148;2023-04-04T15:20:07;13.10;99.90
10278;DHT22;5184;51.376;7.148;2023-04-04T15:22:34;13.10;99.90
10278;DHT22;5184;51.376;7.148;2023-04-04T15:25:00;13.50;99.90
10278;DHT22;5184;51.376;7.148;2023-04-04T15:27:27;14.30;99.90
10278;DHT22;5184;51.376;7.148;2023-04-04T15:29:54;15.20;99.90
10278;DHT22;5184;51.376;7.148;2023-04-04T15:32:20;15.70;99.90
10278;DHT22;5184;51.376;7.148;2023-04-04T15:34:47;15.80;99.90
10278;DHT22;5184;51.376;7.148;2023-04-04T15:37:14;16.50;99.90
10278;DHT22;5184;51.376;7.148;2023-04-04T15:39:42;16.90;99.90
10278;DHT22;5184;51.376;7.148;2023-04-04T15:42:08;16.90;99.90
10278;DHT22;5184;51.376;7.148;2023-04-04T15:44:35;16.90;99.90
10278;DHT22;5184;51.376;7.148;2023-04-04T15:47:01;17.10;99.90
10278;DHT22;5184;51.376;7.148;2023-04-04T15:49:29;17.20;99.90
10278;DHT22;5184;51.376;7.148;2023-04-04T15:51:56;17.60;99.90
10278;DHT22;5184;51.376;7.148;2023-04-04T15:54:23;17.90;99.90
10278;DHT22;5184;51.376;7.148;2023-04-04T15:56:51;17.90;99.90
10278;DHT22;5184;51.376;7.148;2023-04-04T15:59:18;17.90;99.90
10278;DHT22;5184;51.376;7.148;2023-04-04T16:01:45;17.90;99.90
10278;DHT22;5184;51.376;7.148;2023-04-04T16:04:11;17.80;99.90
10278;DHT22;5184;51.376;7.148;2023-04-04T16:06:38;18.30;99.90
10278;DHT22;5184;51.376;7.148;2023-04-04T16:09:05;17.90;99.90